createdAt,value
2018-09-30T00:01:14.971Z,85.80
2018-09-30T00:03:48.408Z,85.40
2018-09-30T00:06:21.815Z,85.30
2018-09-30T00:08:55.279Z,85.20
2018-09-30T00:11:28.751Z,85.50
2018-09-30T00:14:02.183Z,85.60
2018-09-30T00:16:35.608Z,86.40
2018-09-30T00:19:09.027Z,86.20
2018-09-30T00:21:42.543Z,85.50
2018-09-30T00:24:21.274Z,85.70
2018-09-30T00:27:06.243Z,86.30
2018-09-30T00:29:39.667Z,86.20
2018-09-30T00:32:13.070Z,86.40
2018-09-30T00:34:46.469Z,86.10
2018-09-30T00:37:19.863Z,85.80
2018-09-30T00:39:53.278Z,85.20
2018-09-30T00:42:26.714Z,85.80
2018-09-30T00:45:00.130Z,86.50
2018-09-30T00:47:33.543Z,86.50
2018-09-30T00:50:08.039Z,86.00
2018-09-30T00:52:41.439Z,86.20
2018-09-30T00:55:14.850Z,86.90
2018-09-30T00:57:48.251Z,87.30
2018-09-30T01:00:21.694Z,86.90
2018-09-30T01:02:55.106Z,86.50
2018-09-30T01:05:28.522Z,86.70
2018-09-30T01:08:01.913Z,86.70
2018-09-30T01:10:35.316Z,86.80
2018-09-30T01:13:08.759Z,86.50
2018-09-30T01:15:42.162Z,85.60
2018-09-30T01:18:15.559Z,86.40
2018-09-30T01:20:48.972Z,86.00
2018-09-30T01:23:22.427Z,86.40
2018-09-30T01:25:56.918Z,86.40
2018-09-30T01:28:30.362Z,86.50
2018-09-30T01:31:03.778Z,86.40
2018-09-30T01:33:37.171Z,86.70
2018-09-30T01:36:10.574Z,86.30
2018-09-30T01:38:43.978Z,86.70
2018-09-30T01:41:17.402Z,86.70
2018-09-30T01:43:52.830Z,88.30
2018-09-30T01:46:26.234Z,88.10
2018-09-30T01:48:59.634Z,88.30
2018-09-30T01:51:33.046Z,87.80
2018-09-30T01:54:06.550Z,87.50
2018-09-30T01:56:39.959Z,88.00
2018-09-30T01:59:13.354Z,87.40
2018-09-30T02:01:46.770Z,87.80
2018-09-30T02:04:20.174Z,89.30
2018-09-30T02:06:53.590Z,90.10
2018-09-30T02:09:26.992Z,89.00
2018-09-30T02:12:00.398Z,89.80
2018-09-30T02:14:33.811Z,89.30
2018-09-30T02:17:07.234Z,89.30
2018-09-30T02:19:40.637Z,89.00
2018-09-30T02:22:14.087Z,89.30
2018-09-30T02:24:47.484Z,88.80
2018-09-30T02:27:20.887Z,88.80
2018-09-30T02:29:54.287Z,89.30
2018-09-30T02:32:27.690Z,89.40
2018-09-30T02:35:01.085Z,89.40
2018-09-30T02:37:34.510Z,89.20
2018-09-30T02:40:08.054Z,89.50
2018-09-30T02:42:41.463Z,89.70
2018-09-30T02:45:14.915Z,90.00
2018-09-30T02:47:48.314Z,89.40
2018-09-30T02:50:21.718Z,90.10
2018-09-30T02:52:55.134Z,90.00
2018-09-30T02:55:28.642Z,89.70
2018-09-30T02:58:02.043Z,89.90
2018-09-30T03:00:35.450Z,90.00
2018-09-30T03:03:08.878Z,90.00
2018-09-30T03:05:42.259Z,90.00
2018-09-30T03:08:21.006Z,89.80
2018-09-30T03:10:54.394Z,90.20
2018-09-30T03:13:28.890Z,90.20
2018-09-30T03:16:02.280Z,90.00
2018-09-30T03:18:35.686Z,90.00
2018-09-30T03:21:09.085Z,90.20
2018-09-30T03:23:42.511Z,90.00
2018-09-30T03:26:15.903Z,90.00
2018-09-30T03:28:49.318Z,90.00
2018-09-30T03:31:22.730Z,90.20
2018-09-30T03:33:57.215Z,90.00
2018-09-30T03:36:30.598Z,90.20
2018-09-30T03:39:04.659Z,90.10
2018-09-30T03:41:38.098Z,89.80
2018-09-30T03:44:11.514Z,90.00
2018-09-30T03:46:44.926Z,90.30
2018-09-30T03:49:18.330Z,90.40
2018-09-30T03:51:51.739Z,90.50
2018-09-30T03:54:25.210Z,90.30
2018-09-30T03:56:58.623Z,90.40
2018-09-30T03:59:32.038Z,90.50
2018-09-30T04:02:05.563Z,90.90
2018-09-30T04:04:38.972Z,90.70
2018-09-30T04:07:12.403Z,90.80
2018-09-30T04:09:45.980Z,90.60
2018-09-30T04:12:19.295Z,90.50
2018-09-30T04:14:52.694Z,90.60
2018-09-30T04:17:26.153Z,90.70
2018-09-30T04:19:59.531Z,90.80
2018-09-30T04:22:32.922Z,90.90
2018-09-30T04:25:06.395Z,90.80
2018-09-30T04:27:39.786Z,90.90
2018-09-30T04:30:13.210Z,90.90
2018-09-30T04:32:46.619Z,90.90
2018-09-30T04:35:20.023Z,90.80
2018-09-30T04:37:53.471Z,91.10
2018-09-30T04:40:26.962Z,91.20
2018-09-30T04:43:00.375Z,91.10
2018-09-30T04:45:33.842Z,91.00
2018-09-30T04:48:07.247Z,91.00
2018-09-30T04:50:40.666Z,91.10
2018-09-30T04:53:14.075Z,91.00
2018-09-30T04:55:47.498Z,91.00
2018-09-30T04:58:20.918Z,91.00
2018-09-30T05:00:54.342Z,91.00
2018-09-30T05:03:27.798Z,91.10
2018-09-30T05:06:01.209Z,91.30
2018-09-30T05:08:34.615Z,91.40
2018-09-30T05:11:08.302Z,91.50
2018-09-30T05:13:41.737Z,91.50
2018-09-30T05:16:15.202Z,91.70
2018-09-30T05:18:48.558Z,91.50
2018-09-30T05:21:21.966Z,91.60
2018-09-30T05:23:55.353Z,91.80
2018-09-30T05:26:28.776Z,91.60
2018-09-30T05:29:02.168Z,91.50
2018-09-30T05:31:35.570Z,91.40
2018-09-30T05:34:08.962Z,91.50
2018-09-30T05:36:42.386Z,91.60
2018-09-30T05:39:15.783Z,91.50
2018-09-30T05:41:49.279Z,91.60
2018-09-30T05:44:22.675Z,91.80
2018-09-30T05:46:56.094Z,91.90
2018-09-30T05:49:29.556Z,91.90
2018-09-30T05:52:02.995Z,91.90
2018-09-30T05:54:36.434Z,92.40
2018-09-30T05:57:09.833Z,92.50
2018-09-30T05:59:43.266Z,92.50
2018-09-30T06:02:16.661Z,93.70
2018-09-30T06:04:50.145Z,93.10
2018-09-30T06:07:23.501Z,92.70
2018-09-30T06:09:57.000Z,92.60
2018-09-30T06:12:30.407Z,92.50
2018-09-30T06:15:03.870Z,92.60
2018-09-30T06:17:37.269Z,92.60
2018-09-30T06:20:10.696Z,93.60
2018-09-30T06:22:44.087Z,92.40
2018-09-30T06:25:17.567Z,92.10
2018-09-30T06:27:50.967Z,92.00
2018-09-30T06:30:24.386Z,92.10
2018-09-30T06:32:57.781Z,92.10
2018-09-30T06:35:31.216Z,92.60
2018-09-30T06:38:04.623Z,92.70
2018-09-30T06:40:38.119Z,92.70
2018-09-30T06:43:11.545Z,92.70
2018-09-30T06:45:44.971Z,92.90
2018-09-30T06:48:18.387Z,93.00
2018-09-30T06:50:51.883Z,93.20
2018-09-30T06:53:25.259Z,93.30
2018-09-30T06:55:58.758Z,92.90
2018-09-30T06:58:32.182Z,91.50
2018-09-30T07:01:05.623Z,92.10
2018-09-30T07:03:39.088Z,92.50
2018-09-30T07:06:12.490Z,92.10
2018-09-30T07:08:45.887Z,92.20
2018-09-30T07:11:19.390Z,92.40
2018-09-30T07:13:52.787Z,91.70
2018-09-30T07:16:26.211Z,90.50
2018-09-30T07:18:59.631Z,90.10
2018-09-30T07:21:33.038Z,90.20
2018-09-30T07:24:06.454Z,88.50
2018-09-30T07:26:39.897Z,87.80
2018-09-30T07:29:13.311Z,89.30
2018-09-30T07:31:46.771Z,88.30
2018-09-30T07:34:20.193Z,87.40
2018-09-30T07:36:53.611Z,88.50
2018-09-30T07:39:27.046Z,90.90
2018-09-30T07:42:00.487Z,90.40
2018-09-30T07:44:33.956Z,90.00
2018-09-30T07:47:07.462Z,90.50
2018-09-30T07:49:40.859Z,90.10
2018-09-30T07:52:14.501Z,86.20
2018-09-30T07:54:47.890Z,85.90
2018-09-30T07:57:21.331Z,89.20
2018-09-30T07:59:54.718Z,87.20
2018-09-30T08:02:29.186Z,87.20
2018-09-30T08:05:02.583Z,89.80
2018-09-30T08:07:36.016Z,88.90
2018-09-30T08:10:09.419Z,89.90
2018-09-30T08:12:42.826Z,90.00
2018-09-30T08:15:16.243Z,87.10
2018-09-30T08:17:49.665Z,88.90
2018-09-30T08:20:23.114Z,87.90
2018-09-30T08:22:56.560Z,88.60
2018-09-30T08:25:29.956Z,88.20
2018-09-30T08:28:03.379Z,88.10
2018-09-30T08:30:36.786Z,89.60
2018-09-30T08:33:10.202Z,88.30
2018-09-30T08:35:46.963Z,87.20
2018-09-30T08:38:26.322Z,88.10
2018-09-30T08:41:05.498Z,88.50
2018-09-30T08:43:41.210Z,87.50
2018-09-30T08:46:14.614Z,85.90
2018-09-30T08:48:48.023Z,86.80
2018-09-30T08:51:21.414Z,86.70
2018-09-30T08:53:54.868Z,86.70
2018-09-30T08:56:28.246Z,85.60
2018-09-30T08:59:01.662Z,89.00
2018-09-30T09:01:35.215Z,90.60
2018-09-30T09:04:08.627Z,86.90
2018-09-30T09:06:42.019Z,85.20
2018-09-30T09:09:15.435Z,88.30
2018-09-30T09:11:48.820Z,86.90
2018-09-30T09:14:22.278Z,86.10
2018-09-30T09:16:55.681Z,84.30
2018-09-30T09:19:29.103Z,85.20
2018-09-30T09:22:02.526Z,84.70
2018-09-30T09:24:36.332Z,84.70
2018-09-30T09:27:09.808Z,84.60
2018-09-30T09:29:43.226Z,85.10
2018-09-30T09:32:17.674Z,86.20
2018-09-30T09:34:51.107Z,85.80
2018-09-30T09:37:24.518Z,84.10
2018-09-30T09:39:57.943Z,85.80
2018-09-30T09:42:31.365Z,83.80
2018-09-30T09:45:04.891Z,83.90
2018-09-30T09:47:38.294Z,84.70
2018-09-30T09:50:11.733Z,83.80
2018-09-30T09:52:45.140Z,85.70
2018-09-30T09:55:18.563Z,86.10
2018-09-30T09:57:51.976Z,85.50
2018-09-30T10:00:35.686Z,84.40
2018-09-30T10:03:09.146Z,83.60
2018-09-30T10:05:42.975Z,82.20
2018-09-30T10:08:16.423Z,82.10
2018-09-30T10:10:49.826Z,81.70
2018-09-30T10:13:23.342Z,83.90
2018-09-30T10:15:56.661Z,84.80
2018-09-30T10:18:30.110Z,81.00
2018-09-30T10:21:03.519Z,83.20
2018-09-30T10:23:36.942Z,81.60
2018-09-30T10:26:10.367Z,81.60
2018-09-30T10:28:43.792Z,81.10
2018-09-30T10:31:17.232Z,81.20
2018-09-30T10:33:50.639Z,81.70
2018-09-30T10:36:24.040Z,83.10
2018-09-30T10:38:57.536Z,81.60
2018-09-30T10:41:30.890Z,80.70
2018-09-30T10:44:04.326Z,80.10
2018-09-30T10:46:38.777Z,81.50
2018-09-30T10:49:12.215Z,79.30
2018-09-30T10:51:45.639Z,78.90
2018-09-30T10:54:19.060Z,79.00
2018-09-30T10:56:52.539Z,79.10
2018-09-30T10:59:25.920Z,79.30
2018-09-30T11:01:59.330Z,82.70
2018-09-30T11:04:32.750Z,78.30
2018-09-30T11:07:06.474Z,79.30
2018-09-30T11:09:39.996Z,77.60
2018-09-30T11:12:13.363Z,78.10
2018-09-30T11:14:46.797Z,77.80
2018-09-30T11:17:20.199Z,77.10
2018-09-30T11:19:53.617Z,77.90
2018-09-30T11:22:27.128Z,77.70
2018-09-30T11:25:00.555Z,78.00
2018-09-30T11:27:33.946Z,76.90
2018-09-30T11:30:07.390Z,76.90
2018-09-30T11:32:40.836Z,76.80
2018-09-30T11:35:14.294Z,77.40
2018-09-30T11:37:47.886Z,77.80
2018-09-30T11:40:21.327Z,77.50
2018-09-30T11:42:54.732Z,76.10
2018-09-30T11:45:28.147Z,76.40
2018-09-30T11:48:01.559Z,76.90
2018-09-30T11:50:34.974Z,75.90
2018-09-30T11:53:08.363Z,76.40
2018-09-30T11:55:41.775Z,74.90
2018-09-30T11:58:15.166Z,75.30
2018-09-30T12:00:48.592Z,74.70
2018-09-30T12:03:22.003Z,75.20
2018-09-30T12:05:55.429Z,75.80
2018-09-30T12:08:28.935Z,76.20
2018-09-30T12:11:02.352Z,76.10
2018-09-30T12:13:35.754Z,75.50
2018-09-30T12:16:09.175Z,75.40
2018-09-30T12:18:42.585Z,74.10
2018-09-30T12:21:16.158Z,75.80
2018-09-30T12:23:49.573Z,75.90
2018-09-30T12:26:22.995Z,74.90
2018-09-30T12:28:56.388Z,75.10
2018-09-30T12:31:29.809Z,74.40
2018-09-30T12:34:03.213Z,75.50
2018-09-30T12:36:36.631Z,74.10
2018-09-30T12:39:10.949Z,75.70
2018-09-30T12:41:44.375Z,74.30
2018-09-30T12:44:17.870Z,75.10
2018-09-30T12:46:51.296Z,74.40
2018-09-30T12:49:24.686Z,73.40
2018-09-30T12:51:58.131Z,74.70
2018-09-30T12:54:31.543Z,73.30
2018-09-30T12:57:04.975Z,73.40
2018-09-30T12:59:38.390Z,73.90
2018-09-30T13:02:11.810Z,74.20
2018-09-30T13:04:45.202Z,73.70
2018-09-30T13:07:18.635Z,72.70
2018-09-30T13:09:52.030Z,73.40
2018-09-30T13:12:25.459Z,72.60
2018-09-30T13:14:58.850Z,71.80
2018-09-30T13:17:32.303Z,72.80
2018-09-30T13:20:06.116Z,73.40
2018-09-30T13:22:39.572Z,71.90
2018-09-30T13:25:12.957Z,71.80
2018-09-30T13:27:46.370Z,71.50
2018-09-30T13:30:19.788Z,71.70
2018-09-30T13:32:53.211Z,70.60
2018-09-30T13:35:26.619Z,72.00
2018-09-30T13:38:00.864Z,70.50
2018-09-30T13:40:34.391Z,70.00
2018-09-30T13:43:07.713Z,70.50
2018-09-30T13:45:41.152Z,72.40
2018-09-30T13:48:14.566Z,71.40
2018-09-30T13:50:47.991Z,70.50
2018-09-30T13:53:21.410Z,69.90
2018-09-30T13:55:54.805Z,70.20
2018-09-30T13:58:28.319Z,70.40
2018-09-30T14:01:01.795Z,71.90
2018-09-30T14:03:35.219Z,70.60
2018-09-30T14:06:08.616Z,70.30
2018-09-30T14:08:42.022Z,70.40
2018-09-30T14:11:15.415Z,70.60
2018-09-30T14:13:48.836Z,70.30
2018-09-30T14:16:22.306Z,69.50
2018-09-30T14:18:55.747Z,68.80
2018-09-30T14:21:29.197Z,69.90
2018-09-30T14:24:02.636Z,69.80
2018-09-30T14:26:36.087Z,69.20
2018-09-30T14:29:09.499Z,70.00
2018-09-30T14:31:42.899Z,69.00
2018-09-30T14:34:16.343Z,67.90
2018-09-30T14:36:49.791Z,69.50
2018-09-30T14:39:23.218Z,68.30
2018-09-30T14:41:56.619Z,67.80
2018-09-30T14:44:30.041Z,68.30
2018-09-30T14:47:03.476Z,68.60
2018-09-30T14:49:36.920Z,69.00
2018-09-30T14:52:10.315Z,67.80
2018-09-30T14:54:43.756Z,67.80
2018-09-30T14:57:18.195Z,68.20
2018-09-30T14:59:51.664Z,68.30
2018-09-30T15:02:25.138Z,68.30
2018-09-30T15:04:58.547Z,67.60
2018-09-30T15:07:31.981Z,66.90
2018-09-30T15:10:05.429Z,67.90
2018-09-30T15:12:38.828Z,68.30
2018-09-30T15:15:12.239Z,67.80
2018-09-30T15:17:45.663Z,68.80
2018-09-30T15:20:19.079Z,69.10
2018-09-30T15:22:52.510Z,69.20
2018-09-30T15:25:25.931Z,69.50
2018-09-30T15:27:59.331Z,69.30
2018-09-30T15:30:32.805Z,69.90
2018-09-30T15:33:06.203Z,69.30
2018-09-30T15:35:39.622Z,69.10
2018-09-30T15:38:13.011Z,69.40
2018-09-30T15:40:46.439Z,69.40
2018-09-30T15:43:19.847Z,69.70
2018-09-30T15:45:53.367Z,68.40
2018-09-30T15:48:26.766Z,68.80
2018-09-30T15:51:00.270Z,68.70
2018-09-30T15:53:33.671Z,69.30
2018-09-30T15:56:07.231Z,69.20
2018-09-30T15:58:40.619Z,68.70
2018-09-30T16:01:14.040Z,69.00
2018-09-30T16:03:47.434Z,70.40
2018-09-30T16:06:24.718Z,69.80
2018-09-30T16:08:58.226Z,70.20
2018-09-30T16:11:31.648Z,70.30
2018-09-30T16:14:05.089Z,70.80
2018-09-30T16:16:38.495Z,69.70
2018-09-30T16:19:11.914Z,70.50
2018-09-30T16:21:45.335Z,70.70
2018-09-30T16:24:18.738Z,71.70
2018-09-30T16:26:52.139Z,71.50
2018-09-30T16:29:25.554Z,72.00
2018-09-30T16:31:58.954Z,72.60
2018-09-30T16:34:32.383Z,73.00
2018-09-30T16:37:05.815Z,73.50
2018-09-30T16:39:39.226Z,73.30
2018-09-30T16:42:12.671Z,73.90
2018-09-30T16:44:46.087Z,73.90
2018-09-30T16:47:19.487Z,73.30
2018-09-30T16:49:52.901Z,73.30
2018-09-30T16:52:26.367Z,72.90
2018-09-30T16:54:59.791Z,73.10
2018-09-30T16:57:33.259Z,73.00
2018-09-30T17:00:07.927Z,74.00
2018-09-30T17:02:41.330Z,75.60
2018-09-30T17:05:14.743Z,75.80
2018-09-30T17:07:48.135Z,74.90
2018-09-30T17:10:21.597Z,75.10
2018-09-30T17:12:55.022Z,75.80
2018-09-30T17:15:28.429Z,76.00
2018-09-30T17:18:01.823Z,76.60
2018-09-30T17:20:35.261Z,75.50
2018-09-30T17:23:08.695Z,76.60
2018-09-30T17:25:42.123Z,78.50
2018-09-30T17:28:15.536Z,78.50
2018-09-30T17:30:49.015Z,78.10
2018-09-30T17:33:22.415Z,78.30
2018-09-30T17:35:55.896Z,78.40
2018-09-30T17:38:29.438Z,78.30
2018-09-30T17:41:02.919Z,78.10
2018-09-30T17:43:36.345Z,78.20
2018-09-30T17:46:09.979Z,78.10
2018-09-30T17:48:43.383Z,78.10
2018-09-30T17:51:16.862Z,78.50
2018-09-30T17:53:50.250Z,78.50
2018-09-30T17:56:23.662Z,78.50
2018-09-30T17:58:57.142Z,79.70
2018-09-30T18:01:30.562Z,79.80
2018-09-30T18:04:04.030Z,79.40
2018-09-30T18:06:37.443Z,78.90
2018-09-30T18:09:12.866Z,79.50
2018-09-30T18:11:46.322Z,79.10
2018-09-30T18:14:19.722Z,79.40
2018-09-30T18:16:53.178Z,79.50
2018-09-30T18:19:26.622Z,79.30
2018-09-30T18:22:00.031Z,79.30
2018-09-30T18:24:33.470Z,79.70
2018-09-30T18:27:06.883Z,79.30
2018-09-30T18:29:40.285Z,80.00
2018-09-30T18:32:13.698Z,80.00
2018-09-30T18:34:47.534Z,79.70
2018-09-30T18:37:21.131Z,79.30
2018-09-30T18:39:54.666Z,79.50
2018-09-30T18:42:28.048Z,79.50
2018-09-30T18:45:01.920Z,79.70
2018-09-30T18:47:35.318Z,79.80
2018-09-30T18:50:08.726Z,80.10
2018-09-30T18:52:42.125Z,79.70
2018-09-30T18:55:15.566Z,79.50
2018-09-30T18:57:48.990Z,80.00
2018-09-30T19:00:25.539Z,80.00
2018-09-30T19:02:58.982Z,79.80
2018-09-30T19:05:32.455Z,79.80
2018-09-30T19:08:06.169Z,80.50
2018-09-30T19:10:40.658Z,81.20
2018-09-30T19:13:14.068Z,81.30
2018-09-30T19:15:47.562Z,81.50
2018-09-30T19:18:20.975Z,80.60
2018-09-30T19:20:54.362Z,81.10
2018-09-30T19:23:27.774Z,81.40
2018-09-30T19:26:02.239Z,81.10
2018-09-30T19:28:35.655Z,81.20
2018-09-30T19:31:09.058Z,81.30
2018-09-30T19:33:42.487Z,81.10
2018-09-30T19:36:15.915Z,81.10
2018-09-30T19:38:49.348Z,81.20
2018-09-30T19:41:22.776Z,81.80
2018-09-30T19:43:56.200Z,82.00
2018-09-30T19:46:29.611Z,82.20
2018-09-30T19:49:03.059Z,81.90
2018-09-30T19:51:36.479Z,82.50
2018-09-30T19:54:09.973Z,83.10
2018-09-30T19:56:43.351Z,83.10
2018-09-30T19:59:16.779Z,83.00
2018-09-30T20:01:50.187Z,83.20
2018-09-30T20:04:23.610Z,83.10
2018-09-30T20:06:57.022Z,84.10
2018-09-30T20:09:30.491Z,84.00
2018-09-30T20:12:03.875Z,83.70
2018-09-30T20:14:37.347Z,84.00
2018-09-30T20:17:10.750Z,83.80
2018-09-30T20:19:44.188Z,83.10
2018-09-30T20:22:17.599Z,83.50
2018-09-30T20:24:54.577Z,84.00
2018-09-30T20:27:27.966Z,84.10
2018-09-30T20:30:01.386Z,85.10
2018-09-30T20:32:34.795Z,85.60
2018-09-30T20:35:08.519Z,86.80
2018-09-30T20:37:41.930Z,85.70
2018-09-30T20:40:15.366Z,85.20
2018-09-30T20:42:48.775Z,87.30
2018-09-30T20:45:22.218Z,89.30
2018-09-30T20:47:55.618Z,88.60
2018-09-30T20:50:29.171Z,89.10
2018-09-30T20:53:02.666Z,88.90
2018-09-30T20:55:36.150Z,88.80
2018-09-30T20:58:09.570Z,89.60
2018-09-30T21:00:46.850Z,88.10
2018-09-30T21:03:21.354Z,88.10
2018-09-30T21:06:07.676Z,88.10
2018-09-30T21:08:41.181Z,87.80
2018-09-30T21:11:14.661Z,87.70
2018-09-30T21:13:48.099Z,88.30
2018-09-30T21:16:21.509Z,87.90
2018-09-30T21:18:54.959Z,87.80
2018-09-30T21:21:28.369Z,87.50
2018-09-30T21:24:01.791Z,87.60
2018-09-30T21:26:35.198Z,87.20
2018-09-30T21:29:08.646Z,87.20
2018-09-30T21:31:42.057Z,86.90
2018-09-30T21:34:15.648Z,87.20
2018-09-30T21:36:49.005Z,86.90
2018-09-30T21:39:23.484Z,87.00
2018-09-30T21:41:56.919Z,86.80
2018-09-30T21:44:30.339Z,88.00
2018-09-30T21:47:03.791Z,88.10
2018-09-30T21:49:37.215Z,89.10
2018-09-30T21:52:10.607Z,89.40
2018-09-30T21:54:44.023Z,88.40
2018-09-30T21:57:17.450Z,87.90
2018-09-30T21:59:50.889Z,88.50
2018-09-30T22:02:26.371Z,88.20
2018-09-30T22:04:59.791Z,88.80
2018-09-30T22:07:33.196Z,88.70
2018-09-30T22:10:06.682Z,88.00
2018-09-30T22:12:40.090Z,88.30
2018-09-30T22:15:13.524Z,87.90
2018-09-30T22:17:47.000Z,88.70
2018-09-30T22:20:20.431Z,88.60
2018-09-30T22:22:53.935Z,88.50
2018-09-30T22:25:27.372Z,88.80
2018-09-30T22:28:01.221Z,89.20
2018-09-30T22:30:34.831Z,89.10
2018-09-30T22:33:08.235Z,89.10
2018-09-30T22:35:41.715Z,88.80
2018-09-30T22:38:15.147Z,88.70
2018-09-30T22:40:48.644Z,89.40
2018-09-30T22:43:22.045Z,88.60
2018-09-30T22:45:55.479Z,88.30
2018-09-30T22:48:28.886Z,89.00
2018-09-30T22:51:02.301Z,89.00
2018-09-30T22:53:35.719Z,88.50
2018-09-30T22:56:09.178Z,87.90
2018-09-30T22:58:42.587Z,88.40
2018-09-30T23:01:16.025Z,88.80
2018-09-30T23:03:49.527Z,88.40
2018-09-30T23:06:22.942Z,88.20
2018-09-30T23:08:56.352Z,87.80
2018-09-30T23:11:29.791Z,87.40
2018-09-30T23:14:03.207Z,83.10
2018-09-30T23:16:36.623Z,83.50
2018-09-30T23:19:10.043Z,85.20
2018-09-30T23:21:43.459Z,86.30
2018-09-30T23:24:16.858Z,86.80
2018-09-30T23:26:50.275Z,87.40
2018-09-30T23:29:23.683Z,87.90
2018-09-30T23:31:57.151Z,88.40
2018-09-30T23:34:30.564Z,88.40
2018-09-30T23:37:04.015Z,87.10
2018-09-30T23:39:37.440Z,86.30
2018-09-30T23:42:10.948Z,83.10
2018-09-30T23:44:44.347Z,85.90
2018-09-30T23:47:17.754Z,85.20
2018-09-30T23:49:51.146Z,85.20
2018-09-30T23:52:24.603Z,84.80
2018-09-30T23:54:58.018Z,86.20
2018-09-30T23:57:31.455Z,88.40
